sensor_id;sensor_type;location;lat;lon;timestamp;temperature;humidity
60293;DHT22;52402;52.670;6.750;2023-09-07T00:00:21;17.20;99.90
60293;DHT22;52402;52.670;6.750;2023-09-07T00:02:47;17.20;99.90
60293;DHT22;52402;52.670;6.750;2023-09-07T00:05:12;17.20;99.90
60293;DHT22;52402;52.670;6.750;2023-09-07T00:07:39;17.10;99.90
60293;DHT22;52402;52.670;6.750;2023-09-07T00:10:05;17.10;99.90
60293;DHT22;52402;52.670;6.750;2023-09-07T00:12:30;17.10;99.90
60293;DHT22;52402;52.670;6.750;2023-09-07T00:14:57;17.00;99.90
60293;DHT22;52402;52.670;6.750;2023-09-07T00:17:23;17.00;99.90
60293;DHT22;52402;52.670;6.750;2023-09-07T00:19:49;16.90;99.90
60293;DHT22;52402;52.670;6.750;2023-09-07T00:22:16;16.90;99.90
60293;DHT22;52402;52.670;6.750;2023-09-07T00:24:43;16.90;99.90
60293;DHT22;52402;52.670;6.750;2023-09-07T00:27:08;16.90;99.90
60293;DHT22;52402;52.670;6.750;2023-09-07T00:29:37;16.90;99.90
60293;DHT22;52402;52.670;6.750;2023-09-07T00:32:03;16.80;99.90
60293;DHT22;52402;52.670;6.750;2023-09-07T00:34:29;16.80;99.90
60293;DHT22;52402;52.670;6.750;2023-09-07T00:36:54;16.80;99.90
60293;DHT22;52402;52.670;6.750;2023-09-07T00:39:20;16.70;99.90
60293;DHT22;52402;52.670;6.750;2023-09-07T00:41:45;16.70;99.90
60293;DHT22;52402;52.670;6.750;2023-09-07T00:44:11;16.70;99.90
60293;DHT22;52402;52.670;6.750;2023-09-07T00:49:24;16.60;99.90
60293;DHT22;52402;52.670;6.750;2023-09-07T00:51:50;16.50;99.90
60293;DHT22;52402;52.670;6.750;2023-09-07T00:54:16;16.50;99.90
60293;DHT22;52402;52.670;6.750;2023-09-07T00:56:42;16.50;99.90
60293;DHT22;52402;52.670;6.750;2023-09-07T00:59:08;16.50;99.90
60293;DHT22;52402;52.670;6.750;2023-09-07T01:01:35;16.50;99.90
60293;DHT22;52402;52.670;6.750;2023-09-07T01:04:01;16.50;99.90
60293;DHT22;52402;52.670;6.750;2023-09-07T01:06:45;16.40;99.90
60293;DHT22;52402;52.670;6.750;2023-09-07T01:09:19;16.40;99.90
60293;DHT22;52402;52.670;6.750;2023-09-07T01:11:45;16.40;99.90
60293;DHT22;52402;52.670;6.750;2023-09-07T01:14:11;16.30;99.90
60293;DHT22;52402;52.670;6.750;2023-09-07T01:16:36;16.30;99.90
60293;DHT22;52402;52.670;6.750;2023-09-07T01:19:06;16.30;99.90
60293;DHT22;52402;52.670;6.750;2023-09-07T01:21:38;16.30;99.90
60293;DHT22;52402;52.670;6.750;2023-09-07T01:24:10;16.30;99.90
60293;DHT22;52402;52.670;6.750;2023-09-07T01:26:37;16.30;99.90
60293;DHT22;52402;52.670;6.750;2023-09-07T01:29:08;16.20;99.90
60293;DHT22;52402;52.670;6.750;2023-09-07T01:31:37;16.20;99.90
60293;DHT22;52402;52.670;6.750;2023-09-07T01:34:04;16.20;99.90
60293;DHT22;52402;52.670;6.750;2023-09-07T01:36:30;16.20;99.90
60293;DHT22;52402;52.670;6.750;2023-09-07T01:38:56;16.20;99.90
60293;DHT22;52402;52.670;6.750;2023-09-07T01:41:21;16.20;99.90
60293;DHT22;52402;52.670;6.750;2023-09-07T01:43:47;16.20;99.90
60293;DHT22;52402;52.670;6.750;2023-09-07T01:46:13;16.20;99.90
60293;DHT22;52402;52.670;6.750;2023-09-07T01:48:39;16.10;99.90
60293;DHT22;52402;52.670;6.750;2023-09-07T01:51:04;16.10;99.90
60293;DHT22;52402;52.670;6.750;2023-09-07T01:53:30;16.10;99.90
60293;DHT22;52402;52.670;6.750;2023-09-07T01:55:56;16.00;99.90
60293;DHT22;52402;52.670;6.750;2023-09-07T01:58:22;16.10;99.90
60293;DHT22;52402;52.670;6.750;2023-09-07T02:00:49;16.10;99.90
60293;DHT22;52402;52.670;6.750;2023-09-07T02:03:15;16.00;99.90
60293;DHT22;52402;52.670;6.750;2023-09-07T02:05:41;16.00;99.90
60293;DHT22;52402;52.670;6.750;2023-09-07T02:08:06;16.00;99.90
60293;DHT22;52402;52.670;6.750;2023-09-07T02:10:33;16.00;99.90
60293;DHT22;52402;52.670;6.750;2023-09-07T02:12:59;15.90;99.90
60293;DHT22;52402;52.670;6.750;2023-09-07T02:15:25;15.90;99.90
60293;DHT22;52402;52.670;6.750;2023-09-07T02:17:50;15.90;99.90
60293;DHT22;52402;52.670;6.750;2023-09-07T02:20:18;15.80;99.90
60293;DHT22;52402;52.670;6.750;2023-09-07T02:22:45;15.80;99.90
60293;DHT22;52402;52.670;6.750;2023-09-07T02:25:11;15.80;99.90
60293;DHT22;52402;52.670;6.750;2023-09-07T02:27:36;15.80;99.90
60293;DHT22;52402;52.670;6.750;2023-09-07T02:30:03;15.80;99.90
60293;DHT22;52402;52.670;6.750;2023-09-07T02:32:29;15.70;99.90
60293;DHT22;52402;52.670;6.750;2023-09-07T02:34:55;15.70;99.90
60293;DHT22;52402;52.670;6.750;2023-09-07T02:37:20;15.60;99.90
60293;DHT22;52402;52.670;6.750;2023-09-07T02:39:46;15.60;99.90
60293;DHT22;52402;52.670;6.750;2023-09-07T02:42:14;15.50;99.90
60293;DHT22;52402;52.670;6.750;2023-09-07T02:44:39;15.50;99.90
60293;DHT22;52402;52.670;6.750;2023-09-07T02:47:05;15.50;99.90
60293;DHT22;52402;52.670;6.750;2023-09-07T02:49:32;15.50;99.90
60293;DHT22;52402;52.670;6.750;2023-09-07T02:51:57;15.50;99.90
60293;DHT22;52402;52.670;6.750;2023-09-07T02:54:23;15.40;99.90
60293;DHT22;52402;52.670;6.750;2023-09-07T02:56:49;15.40;99.90
60293;DHT22;52402;52.670;6.750;2023-09-07T02:59:15;15.40;99.90
60293;DHT22;52402;52.670;6.750;2023-09-07T03:01:40;15.40;99.90
60293;DHT22;52402;52.670;6.750;2023-09-07T03:04:06;15.30;99.90
60293;DHT22;52402;52.670;6.750;2023-09-07T03:06:33;15.30;99.90
60293;DHT22;52402;52.670;6.750;2023-09-07T03:08:59;15.30;99.90
60293;DHT22;52402;52.670;6.750;2023-09-07T03:11:25;15.30;99.90
60293;DHT22;52402;52.670;6.750;2023-09-07T03:13:51;15.30;99.90
60293;DHT22;52402;52.670;6.750;2023-09-07T03:16:17;15.30;99.90
60293;DHT22;52402;52.670;6.750;2023-09-07T03:18:43;15.30;99.90
60293;DHT22;52402;52.670;6.750;2023-09-07T03:21:09;15.30;99.90
60293;DHT22;52402;52.670;6.750;2023-09-07T03:23:34;15.20;99.90
60293;DHT22;52402;52.670;6.750;2023-09-07T03:26:00;15.20;99.90
60293;DHT22;52402;52.670;6.750;2023-09-07T03:28:26;15.20;99.90
60293;DHT22;52402;52.670;6.750;2023-09-07T03:30:53;15.10;99.90
60293;DHT22;52402;52.670;6.750;2023-09-07T03:33:20;15.10;99.90
60293;DHT22;52402;52.670;6.750;2023-09-07T03:35:46;15.10;99.90
60293;DHT22;52402;52.670;6.750;2023-09-07T03:38:12;15.10;99.90
60293;DHT22;52402;52.670;6.750;2023-09-07T03:40:39;15.00;99.90
60293;DHT22;52402;52.670;6.750;2023-09-07T03:43:04;15.00;99.90
60293;DHT22;52402;52.670;6.750;2023-09-07T03:45:30;15.10;99.90
60293;DHT22;52402;52.670;6.750;2023-09-07T03:47:56;15.00;99.90
60293;DHT22;52402;52.670;6.750;2023-09-07T03:50:22;15.00;99.90
60293;DHT22;52402;52.670;6.750;2023-09-07T03:52:47;15.00;99.90
60293;DHT22;52402;52.670;6.750;2023-09-07T03:55:13;15.00;99.90
60293;DHT22;52402;52.670;6.750;2023-09-07T03:57:39;15.00;99.90
60293;DHT22;52402;52.670;6.750;2023-09-07T04:00:06;15.00;99.90
60293;DHT22;52402;52.670;6.750;2023-09-07T04:02:34;15.00;99.90
60293;DHT22;52402;52.670;6.750;2023-09-07T04:05:00;14.90;99.90
60293;DHT22;52402;52.670;6.750;2023-09-07T04:07:30;14.90;99.90
60293;DHT22;52402;52.670;6.750;2023-09-07T04:09:56;14.90;99.90
60293;DHT22;52402;52.670;6.750;2023-09-07T04:12:21;14.90;99.90
60293;DHT22;52402;52.670;6.750;2023-09-07T04:14:47;14.90;99.90
60293;DHT22;52402;52.670;6.750;2023-09-07T04:17:13;14.90;99.90
60293;DHT22;52402;52.670;6.750;2023-09-07T04:19:38;14.90;99.90
60293;DHT22;52402;52.670;6.750;2023-09-07T04:22:04;14.80;99.90
60293;DHT22;52402;52.670;6.750;2023-09-07T04:24:30;14.80;99.90
60293;DHT22;52402;52.670;6.750;2023-09-07T04:26:59;14.80;99.90
60293;DHT22;52402;52.670;6.750;2023-09-07T04:29:29;14.80;99.90
60293;DHT22;52402;52.670;6.750;2023-09-07T04:31:57;14.70;99.90
60293;DHT22;52402;52.670;6.750;2023-09-07T04:34:23;14.70;99.90
60293;DHT22;52402;52.670;6.750;2023-09-07T04:36:49;14.70;99.90
60293;DHT22;52402;52.670;6.750;2023-09-07T04:39:14;14.70;99.90
60293;DHT22;52402;52.670;6.750;2023-09-07T04:41:41;14.70;99.90
60293;DHT22;52402;52.670;6.750;2023-09-07T04:44:06;14.70;99.90
60293;DHT22;52402;52.670;6.750;2023-09-07T04:46:32;14.70;99.90
60293;DHT22;52402;52.670;6.750;2023-09-07T04:48:57;14.70;99.90
60293;DHT22;52402;52.670;6.750;2023-09-07T04:51:23;14.60;99.90
60293;DHT22;52402;52.670;6.750;2023-09-07T04:53:51;14.60;99.90
60293;DHT22;52402;52.670;6.750;2023-09-07T04:56:17;14.60;99.90
60293;DHT22;52402;52.670;6.750;2023-09-07T04:58:43;14.60;99.90
60293;DHT22;52402;52.670;6.750;2023-09-07T05:01:10;14.60;99.90
60293;DHT22;52402;52.670;6.750;2023-09-07T05:03:37;14.50;99.90
60293;DHT22;52402;52.670;6.750;2023-09-07T05:06:04;14.60;99.90
60293;DHT22;52402;52.670;6.750;2023-09-07T05:08:30;14.50;99.90
60293;DHT22;52402;52.670;6.750;2023-09-07T05:11:01;14.60;99.90
60293;DHT22;52402;52.670;6.750;2023-09-07T05:13:28;14.50;99.90
60293;DHT22;52402;52.670;6.750;2023-09-07T05:15:55;14.50;99.90
60293;DHT22;52402;52.670;6.750;2023-09-07T05:18:21;14.50;99.90
60293;DHT22;52402;52.670;6.750;2023-09-07T05:20:48;14.50;99.90
60293;DHT22;52402;52.670;6.750;2023-09-07T05:23:15;14.50;99.90
60293;DHT22;52402;52.670;6.750;2023-09-07T05:25:44;14.50;99.90
60293;DHT22;52402;52.670;6.750;2023-09-07T05:28:10;14.50;99.90
60293;DHT22;52402;52.670;6.750;2023-09-07T05:30:36;14.50;99.90
60293;DHT22;52402;52.670;6.750;2023-09-07T05:33:02;14.50;99.90
60293;DHT22;52402;52.670;6.750;2023-09-07T05:35:27;14.50;99.90
60293;DHT22;52402;52.670;6.750;2023-09-07T05:37:58;14.50;99.90
60293;DHT22;52402;52.670;6.750;2023-09-07T05:40:25;14.50;99.90
60293;DHT22;52402;52.670;6.750;2023-09-07T05:42:50;14.60;99.90
60293;DHT22;52402;52.670;6.750;2023-09-07T05:45:16;14.60;99.90
60293;DHT22;52402;52.670;6.750;2023-09-07T05:47:42;14.60;99.90
60293;DHT22;52402;52.670;6.750;2023-09-07T05:50:08;14.70;99.90
60293;DHT22;52402;52.670;6.750;2023-09-07T05:52:33;14.70;99.90
60293;DHT22;52402;52.670;6.750;2023-09-07T05:54:59;14.70;99.90
60293;DHT22;52402;52.670;6.750;2023-09-07T05:57:25;14.70;99.90
60293;DHT22;52402;52.670;6.750;2023-09-07T05:59:50;14.70;99.90
60293;DHT22;52402;52.670;6.750;2023-09-07T06:02:16;14.70;99.90
60293;DHT22;52402;52.670;6.750;2023-09-07T06:04:41;14.70;99.90
60293;DHT22;52402;52.670;6.750;2023-09-07T06:07:07;14.80;99.90
60293;DHT22;52402;52.670;6.750;2023-09-07T06:09:33;14.80;99.90
60293;DHT22;52402;52.670;6.750;2023-09-07T06:11:58;14.90;99.90
60293;DHT22;52402;52.670;6.750;2023-09-07T06:14:24;14.90;99.90
60293;DHT22;52402;52.670;6.750;2023-09-07T06:16:49;14.90;99.90
60293;DHT22;52402;52.670;6.750;2023-09-07T06:19:15;14.90;99.90
60293;DHT22;52402;52.670;6.750;2023-09-07T06:21:42;14.90;99.90
60293;DHT22;52402;52.670;6.750;2023-09-07T06:24:08;15.00;99.90
60293;DHT22;52402;52.670;6.750;2023-09-07T06:26:33;15.10;99.90
60293;DHT22;52402;52.670;6.750;2023-09-07T06:28:59;15.10;99.90
60293;DHT22;52402;52.670;6.750;2023-09-07T06:31:24;15.10;99.90
60293;DHT22;52402;52.670;6.750;2023-09-07T06:33:50;15.20;99.90
60293;DHT22;52402;52.670;6.750;2023-09-07T06:36:15;15.20;99.90
60293;DHT22;52402;52.670;6.750;2023-09-07T06:38:41;15.30;99.90
60293;DHT22;52402;52.670;6.750;2023-09-07T06:41:07;15.40;99.90
60293;DHT22;52402;52.670;6.750;2023-09-07T06:43:34;15.40;99.90
60293;DHT22;52402;52.670;6.750;2023-09-07T06:46:07;15.50;99.90
60293;DHT22;52402;52.670;6.750;2023-09-07T06:48:34;15.50;99.90
60293;DHT22;52402;52.670;6.750;2023-09-07T06:51:03;15.60;99.90
60293;DHT22;52402;52.670;6.750;2023-09-07T06:53:29;15.60;99.90
60293;DHT22;52402;52.670;6.750;2023-09-07T06:55:59;15.70;99.90
60293;DHT22;52402;52.670;6.750;2023-09-07T06:58:25;15.90;99.90
60293;DHT22;52402;52.670;6.750;2023-09-07T07:00:50;15.90;99.90
60293;DHT22;52402;52.670;6.750;2023-09-07T07:03:16;16.00;99.90
60293;DHT22;52402;52.670;6.750;2023-09-07T07:05:42;16.10;99.90
60293;DHT22;52402;52.670;6.750;2023-09-07T07:08:08;16.20;99.90
60293;DHT22;52402;52.670;6.750;2023-09-07T07:10:34;16.30;99.90
60293;DHT22;52402;52.670;6.750;2023-09-07T07:13:00;16.30;99.90
60293;DHT22;52402;52.670;6.750;2023-09-07T07:15:25;16.50;99.90
60293;DHT22;52402;52.670;6.750;2023-09-07T07:17:51;16.60;99.90
60293;DHT22;52402;52.670;6.750;2023-09-07T07:20:17;16.70;99.90
60293;DHT22;52402;52.670;6.750;2023-09-07T07:22:42;16.80;99.90
60293;DHT22;52402;52.670;6.750;2023-09-07T07:25:08;16.90;99.90
60293;DHT22;52402;52.670;6.750;2023-09-07T07:27:35;17.00;99.90
60293;DHT22;52402;52.670;6.750;2023-09-07T07:30:01;17.10;99.90
60293;DHT22;52402;52.670;6.750;2023-09-07T07:32:27;17.20;99.90
60293;DHT22;52402;52.670;6.750;2023-09-07T07:34:52;17.30;99.90
60293;DHT22;52402;52.670;6.750;2023-09-07T07:37:18;17.40;99.90
60293;DHT22;52402;52.670;6.750;2023-09-07T07:39:43;17.50;99.90
60293;DHT22;52402;52.670;6.750;2023-09-07T07:42:09;17.60;99.90
60293;DHT22;52402;52.670;6.750;2023-09-07T07:44:35;17.80;99.90
60293;DHT22;52402;52.670;6.750;2023-09-07T07:47:01;17.90;99.90
60293;DHT22;52402;52.670;6.750;2023-09-07T07:49:26;18.00;99.90
60293;DHT22;52402;52.670;6.750;2023-09-07T07:51:53;18.10;99.90
60293;DHT22;52402;52.670;6.750;2023-09-07T07:54:20;18.20;99.90
60293;DHT22;52402;52.670;6.750;2023-09-07T07:56:48;18.30;99.90
60293;DHT22;52402;52.670;6.750;2023-09-07T07:59:14;18.40;99.90
60293;DHT22;52402;52.670;6.750;2023-09-07T08:01:39;18.50;99.90
60293;DHT22;52402;52.670;6.750;2023-09-07T08:04:05;18.60;99.90
60293;DHT22;52402;52.670;6.750;2023-09-07T08:06:32;18.80;99.90
60293;DHT22;52402;52.670;6.750;2023-09-07T08:08:58;18.80;99.90
60293;DHT22;52402;52.670;6.750;2023-09-07T08:11:23;18.90;99.90
60293;DHT22;52402;52.670;6.750;2023-09-07T08:13:49;19.00;99.90
60293;DHT22;52402;52.670;6.750;2023-09-07T08:16:15;19.10;99.90
60293;DHT22;52402;52.670;6.750;2023-09-07T08:18:41;19.20;99.90
60293;DHT22;52402;52.670;6.750;2023-09-07T08:21:07;19.30;99.90
60293;DHT22;52402;52.670;6.750;2023-09-07T08:23:32;19.40;99.90
60293;DHT22;52402;52.670;6.750;2023-09-07T08:25:59;19.50;99.90
60293;DHT22;52402;52.670;6.750;2023-09-07T08:28:25;19.60;99.90
60293;DHT22;52402;52.670;6.750;2023-09-07T08:30:52;19.70;99.90
60293;DHT22;52402;52.670;6.750;2023-09-07T08:33:19;19.80;99.90
60293;DHT22;52402;52.670;6.750;2023-09-07T08:35:52;19.90;99.90
60293;DHT22;52402;52.670;6.750;2023-09-07T08:38:18;20.00;99.90
60293;DHT22;52402;52.670;6.750;2023-09-07T08:40:48;20.00;99.90
60293;DHT22;52402;52.670;6.750;2023-09-07T08:43:14;20.10;99.90
60293;DHT22;52402;52.670;6.750;2023-09-07T08:45:48;20.20;99.90
60293;DHT22;52402;52.670;6.750;2023-09-07T08:48:15;20.30;99.90
60293;DHT22;52402;52.670;6.750;2023-09-07T08:50:45;20.40;99.90
60293;DHT22;52402;52.670;6.750;2023-09-07T08:53:17;20.50;99.90
60293;DHT22;52402;52.670;6.750;2023-09-07T08:55:43;20.60;99.90
60293;DHT22;52402;52.670;6.750;2023-09-07T08:58:11;20.60;99.90
60293;DHT22;52402;52.670;6.750;2023-09-07T09:00:37;20.70;99.90
60293;DHT22;52402;52.670;6.750;2023-09-07T09:03:04;20.80;99.90
60293;DHT22;52402;52.670;6.750;2023-09-07T09:05:30;20.90;99.90
60293;DHT22;52402;52.670;6.750;2023-09-07T09:08:04;21.00;99.90
60293;DHT22;52402;52.670;6.750;2023-09-07T09:10:30;21.10;99.90
60293;DHT22;52402;52.670;6.750;2023-09-07T09:12:56;21.20;99.90
60293;DHT22;52402;52.670;6.750;2023-09-07T09:15:22;21.30;99.90
60293;DHT22;52402;52.670;6.750;2023-09-07T09:17:48;21.40;99.90
60293;DHT22;52402;52.670;6.750;2023-09-07T09:20:24;21.50;99.90
60293;DHT22;52402;52.670;6.750;2023-09-07T09:22:51;21.60;99.90
60293;DHT22;52402;52.670;6.750;2023-09-07T09:25:17;21.70;99.90
60293;DHT22;52402;52.670;6.750;2023-09-07T09:27:43;21.80;99.90
60293;DHT22;52402;52.670;6.750;2023-09-07T09:30:09;21.90;99.90
60293;DHT22;52402;52.670;6.750;2023-09-07T09:32:35;22.00;99.90
60293;DHT22;52402;52.670;6.750;2023-09-07T09:35:01;22.00;99.90
60293;DHT22;52402;52.670;6.750;2023-09-07T09:37:27;22.10;99.90
60293;DHT22;52402;52.670;6.750;2023-09-07T09:39:53;22.20;99.90
60293;DHT22;52402;52.670;6.750;2023-09-07T09:42:20;22.20;99.90
60293;DHT22;52402;52.670;6.750;2023-09-07T09:44:48;22.30;99.90
60293;DHT22;52402;52.670;6.750;2023-09-07T09:47:15;22.40;99.90
60293;DHT22;52402;52.670;6.750;2023-09-07T09:49:42;22.50;99.90
60293;DHT22;52402;52.670;6.750;2023-09-07T09:52:09;22.50;99.90
60293;DHT22;52402;52.670;6.750;2023-09-07T09:54:35;22.70;99.90
60293;DHT22;52402;52.670;6.750;2023-09-07T09:57:01;22.70;99.90
60293;DHT22;52402;52.670;6.750;2023-09-07T09:59:27;22.80;99.90
60293;DHT22;52402;52.670;6.750;2023-09-07T10:01:53;22.90;99.90
60293;DHT22;52402;52.670;6.750;2023-09-07T10:04:20;22.90;99.90
60293;DHT22;52402;52.670;6.750;2023-09-07T10:06:56;23.00;99.90
60293;DHT22;52402;52.670;6.750;2023-09-07T10:09:21;23.10;99.90
60293;DHT22;52402;52.670;6.750;2023-09-07T10:11:54;23.20;99.90
60293;DHT22;52402;52.670;6.750;2023-09-07T10:14:22;23.30;99.90
60293;DHT22;52402;52.670;6.750;2023-09-07T10:16:50;23.40;99.90
60293;DHT22;52402;52.670;6.750;2023-09-07T10:19:19;23.50;99.90
60293;DHT22;52402;52.670;6.750;2023-09-07T10:21:45;23.60;99.90
60293;DHT22;52402;52.670;6.750;2023-09-07T10:24:11;23.60;99.90
60293;DHT22;52402;52.670;6.750;2023-09-07T10:26:37;23.80;99.90
60293;DHT22;52402;52.670;6.750;2023-09-07T10:29:02;23.90;99.90
60293;DHT22;52402;52.670;6.750;2023-09-07T10:31:31;23.90;99.90
60293;DHT22;52402;52.670;6.750;2023-09-07T10:34:07;24.00;99.90
60293;DHT22;52402;52.670;6.750;2023-09-07T10:36:34;24.00;99.90
60293;DHT22;52402;52.670;6.750;2023-09-07T10:39:00;24.10;99.90
60293;DHT22;52402;52.670;6.750;2023-09-07T10:41:26;24.20;99.90
60293;DHT22;52402;52.670;6.750;2023-09-07T10:43:53;24.30;99.90
60293;DHT22;52402;52.670;6.750;2023-09-07T10:46:23;24.40;99.90
60293;DHT22;52402;52.670;6.750;2023-09-07T10:48:50;24.30;99.90
60293;DHT22;52402;52.670;6.750;2023-09-07T10:51:17;24.50;99.90
60293;DHT22;52402;52.670;6.750;2023-09-07T10:53:42;24.60;99.90
60293;DHT22;52402;52.670;6.750;2023-09-07T10:56:08;24.70;99.90
60293;DHT22;52402;52.670;6.750;2023-09-07T10:58:35;24.80;99.90
60293;DHT22;52402;52.670;6.750;2023-09-07T11:01:04;24.80;99.90
60293;DHT22;52402;52.670;6.750;2023-09-07T11:03:30;25.00;99.90
60293;DHT22;52402;52.670;6.750;2023-09-07T11:06:10;25.00;99.90
60293;DHT22;52402;52.670;6.750;2023-09-07T11:08:37;25.10;99.90
60293;DHT22;52402;52.670;6.750;2023-09-07T11:11:03;25.20;99.90
60293;DHT22;52402;52.670;6.750;2023-09-07T11:13:29;25.40;99.90
60293;DHT22;52402;52.670;6.750;2023-09-07T11:15:56;25.50;99.90
60293;DHT22;52402;52.670;6.750;2023-09-07T11:18:23;25.60;99.90
60293;DHT22;52402;52.670;6.750;2023-09-07T11:20:50;25.80;99.90
60293;DHT22;52402;52.670;6.750;2023-09-07T11:23:20;25.90;99.90
60293;DHT22;52402;52.670;6.750;2023-09-07T11:25:48;25.90;99.90
60293;DHT22;52402;52.670;6.750;2023-09-07T11:28:17;26.00;99.90
60293;DHT22;52402;52.670;6.750;2023-09-07T11:30:53;26.10;99.90
60293;DHT22;52402;52.670;6.750;2023-09-07T11:33:21;26.30;99.90
60293;DHT22;52402;52.670;6.750;2023-09-07T11:35:47;26.40;99.90
60293;DHT22;52402;52.670;6.750;2023-09-07T11:38:14;26.50;99.90
60293;DHT22;52402;52.670;6.750;2023-09-07T11:40:41;26.60;99.90
60293;DHT22;52402;52.670;6.750;2023-09-07T11:43:14;26.80;99.90
60293;DHT22;52402;52.670;6.750;2023-09-07T11:45:41;26.80;99.90
60293;DHT22;52402;52.670;6.750;2023-09-07T11:48:07;26.90;99.90
60293;DHT22;52402;52.670;6.750;2023-09-07T11:50:36;27.00;99.90
60293;DHT22;52402;52.670;6.750;2023-09-07T11:53:03;27.00;99.90
60293;DHT22;52402;52.670;6.750;2023-09-07T11:55:29;27.00;99.90
60293;DHT22;52402;52.670;6.750;2023-09-07T11:57:55;27.10;99.90
60293;DHT22;52402;52.670;6.750;2023-09-07T12:00:21;27.20;99.90
60293;DHT22;52402;52.670;6.750;2023-09-07T12:02:48;27.30;99.90
60293;DHT22;52402;52.670;6.750;2023-09-07T12:05:14;27.40;99.90
60293;DHT22;52402;52.670;6.750;2023-09-07T12:07:41;27.40;99.90
60293;DHT22;52402;52.670;6.750;2023-09-07T12:10:08;27.50;99.90
60293;DHT22;52402;52.670;6.750;2023-09-07T12:12:39;27.80;99.90
60293;DHT22;52402;52.670;6.750;2023-09-07T12:15:07;27.90;99.90
60293;DHT22;52402;52.670;6.750;2023-09-07T12:17:33;28.10;99.90
60293;DHT22;52402;52.670;6.750;2023-09-07T12:19:59;28.20;99.90
60293;DHT22;52402;52.670;6.750;2023-09-07T12:22:26;28.40;99.90
60293;DHT22;52402;52.670;6.750;2023-09-07T12:24:54;28.50;99.90
60293;DHT22;52402;52.670;6.750;2023-09-07T12:27:19;28.50;99.90
60293;DHT22;52402;52.670;6.750;2023-09-07T12:29:45;28.70;99.90
60293;DHT22;52402;52.670;6.750;2023-09-07T12:32:11;28.80;99.90
60293;DHT22;52402;52.670;6.750;2023-09-07T12:34:37;28.90;99.90
60293;DHT22;52402;52.670;6.750;2023-09-07T12:37:03;29.00;99.90
60293;DHT22;52402;52.670;6.750;2023-09-07T12:39:34;29.10;99.90
60293;DHT22;52402;52.670;6.750;2023-09-07T12:42:00;29.20;99.90
60293;DHT22;52402;52.670;6.750;2023-09-07T12:44:26;29.30;99.90
60293;DHT22;52402;52.670;6.750;2023-09-07T12:46:52;29.40;99.90
60293;DHT22;52402;52.670;6.750;2023-09-07T12:49:18;29.40;99.90
60293;DHT22;52402;52.670;6.750;2023-09-07T12:51:45;29.40;99.90
60293;DHT22;52402;52.670;6.750;2023-09-07T12:54:11;29.60;99.90
60293;DHT22;52402;52.670;6.750;2023-09-07T12:56:36;29.70;99.90
60293;DHT22;52402;52.670;6.750;2023-09-07T12:59:02;29.80;99.90
60293;DHT22;52402;52.670;6.750;2023-09-07T13:01:29;29.90;99.90
60293;DHT22;52402;52.670;6.750;2023-09-07T13:03:56;30.00;99.90
60293;DHT22;52402;52.670;6.750;2023-09-07T13:06:22;30.10;99.90
60293;DHT22;52402;52.670;6.750;2023-09-07T13:08:47;30.20;99.90
60293;DHT22;52402;52.670;6.750;2023-09-07T13:11:13;30.30;99.90
60293;DHT22;52402;52.670;6.750;2023-09-07T13:13:38;30.30;99.90
60293;DHT22;52402;52.670;6.750;2023-09-07T13:16:05;30.30;99.90
60293;DHT22;52402;52.670;6.750;2023-09-07T13:18:30;30.30;99.90
60293;DHT22;52402;52.670;6.750;2023-09-07T13:20:57;30.30;99.20
60293;DHT22;52402;52.670;6.750;2023-09-07T13:23:28;30.30;99.90
60293;DHT22;52402;52.670;6.750;2023-09-07T13:25:57;30.40;99.90
60293;DHT22;52402;52.670;6.750;2023-09-07T13:28:23;30.30;96.00
60293;DHT22;52402;52.670;6.750;2023-09-07T13:30:50;30.40;99.10
60293;DHT22;52402;52.670;6.750;2023-09-07T13:33:16;30.50;99.20
60293;DHT22;52402;52.670;6.750;2023-09-07T13:35:41;30.50;98.80
60293;DHT22;52402;52.670;6.750;2023-09-07T13:38:07;30.60;99.30
60293;DHT22;52402;52.670;6.750;2023-09-07T13:40:33;30.70;98.40
60293;DHT22;52402;52.670;6.750;2023-09-07T13:43:00;30.60;99.90
60293;DHT22;52402;52.670;6.750;2023-09-07T13:45:25;30.60;99.50
60293;DHT22;52402;52.670;6.750;2023-09-07T13:47:51;30.50;98.90
60293;DHT22;52402;52.670;6.750;2023-09-07T13:50:16;30.50;99.10
60293;DHT22;52402;52.670;6.750;2023-09-07T13:52:42;30.50;99.40
60293;DHT22;52402;52.670;6.750;2023-09-07T13:55:08;30.40;99.40
60293;DHT22;52402;52.670;6.750;2023-09-07T13:57:34;30.40;99.70
60293;DHT22;52402;52.670;6.750;2023-09-07T13:59:59;30.40;97.90
60293;DHT22;52402;52.670;6.750;2023-09-07T14:02:25;30.40;98.10
60293;DHT22;52402;52.670;6.750;2023-09-07T14:04:51;30.50;98.70
60293;DHT22;52402;52.670;6.750;2023-09-07T14:07:17;30.40;96.30
60293;DHT22;52402;52.670;6.750;2023-09-07T14:09:43;30.50;98.30
60293;DHT22;52402;52.670;6.750;2023-09-07T14:12:09;30.50;98.00
60293;DHT22;52402;52.670;6.750;2023-09-07T14:14:35;30.40;95.60
60293;DHT22;52402;52.670;6.750;2023-09-07T14:17:01;30.50;97.80
60293;DHT22;52402;52.670;6.750;2023-09-07T14:19:27;30.40;98.50
60293;DHT22;52402;52.670;6.750;2023-09-07T14:21:56;30.40;98.30
60293;DHT22;52402;52.670;6.750;2023-09-07T14:24:23;30.30;96.60
60293;DHT22;52402;52.670;6.750;2023-09-07T14:26:49;30.40;96.90
60293;DHT22;52402;52.670;6.750;2023-09-07T14:29:14;30.40;97.50
60293;DHT22;52402;52.670;6.750;2023-09-07T14:31:40;30.40;96.70
60293;DHT22;52402;52.670;6.750;2023-09-07T14:34:08;30.40;96.40
60293;DHT22;52402;52.670;6.750;2023-09-07T14:36:34;30.40;95.80
60293;DHT22;52402;52.670;6.750;2023-09-07T14:39:00;30.40;96.50
60293;DHT22;52402;52.670;6.750;2023-09-07T14:41:26;30.40;96.80
60293;DHT22;52402;52.670;6.750;2023-09-07T14:43:53;30.40;96.70
60293;DHT22;52402;52.670;6.750;2023-09-07T14:46:19;30.50;97.30
60293;DHT22;52402;52.670;6.750;2023-09-07T14:48:44;30.50;98.50
60293;DHT22;52402;52.670;6.750;2023-09-07T14:51:13;30.50;96.70
60293;DHT22;52402;52.670;6.750;2023-09-07T14:53:38;30.50;97.50
60293;DHT22;52402;52.670;6.750;2023-09-07T14:56:04;30.40;95.90
60293;DHT22;52402;52.670;6.750;2023-09-07T14:58:30;30.40;96.30
60293;DHT22;52402;52.670;6.750;2023-09-07T15:00:55;30.50;96.70
60293;DHT22;52402;52.670;6.750;2023-09-07T15:03:21;30.50;96.80
60293;DHT22;52402;52.670;6.750;2023-09-07T15:05:46;30.50;96.00
60293;DHT22;52402;52.670;6.750;2023-09-07T15:08:12;30.50;96.50
60293;DHT22;52402;52.670;6.750;2023-09-07T15:10:38;30.50;96.60
60293;DHT22;52402;52.670;6.750;2023-09-07T15:13:03;30.50;97.60
60293;DHT22;52402;52.670;6.750;2023-09-07T15:15:30;30.50;96.90
60293;DHT22;52402;52.670;6.750;2023-09-07T15:18:02;30.50;95.90
60293;DHT22;52402;52.670;6.750;2023-09-07T15:20:29;30.50;96.20
60293;DHT22;52402;52.670;6.750;2023-09-07T15:22:55;30.50;96.50
60293;DHT22;52402;52.670;6.750;2023-09-07T15:25:20;30.60;97.30
60293;DHT22;52402;52.670;6.750;2023-09-07T15:27:46;30.50;95.90